Time;durP1;ratioP1;P1;durP2;ratioP2;P2;SDS_P1;SDS_P2;PMS_P1;PMS_P2;Temp;Humidity;BMP_temperature;BMP_pressure;BME280_temperature;BME280_humidity;BME280_pressure;Samples;Min_cycle;Max_cycle;Signal;HPM_P1;HPM_P2
2021/10/16 00:01:25;;;;;;;11.07;8.60;;;9.70;99.90;;;9.31;100.00;101711.38;4117485;28;20054;-69
2021/10/16 00:03:25;;;;;;;10.52;8.05;;;9.70;99.90;;;9.22;100.00;101698.94;4118283;28;20109;-69
2021/10/16 00:05:26;;;;;;;9.25;8.05;;;9.60;99.90;;;9.23;100.00;101700.59;4118687;28;20538;-69
2021/10/16 00:07:27;;;;;;;11.90;8.05;;;9.70;99.90;;;9.25;100.00;101703.13;4118591;28;20022;-69
2021/10/16 00:09:28;;;;;;;10.52;8.18;;;9.60;99.90;;;9.28;100.00;101711.63;4118466;28;20456;-69
2021/10/16 00:11:29;;;;;;;12.90;9.88;;;9.60;99.90;;;9.32;100.00;101709.53;4118502;28;20027;-69
2021/10/16 00:13:30;;;;;;;13.43;10.38;;;9.60;99.90;;;9.25;100.00;101703.13;4118467;28;20058;-68
2021/10/16 00:15:31;;;;;;;9.45;7.80;;;9.70;99.90;;;9.27;100.00;101707.28;4101090;29;20027;-69
2021/10/16 00:17:32;;;;;;;8.95;7.85;;;9.60;99.90;;;9.23;100.00;101699.75;4111640;28;20054;-69
2021/10/16 00:19:33;;;;;;;12.45;9.98;;;9.60;99.90;;;9.25;100.00;101700.50;4100948;29;20058;-69
2021/10/16 00:21:36;;;;;;;17.25;11.98;;;9.60;99.90;;;9.30;100.00;101706.22;4132983;28;20038;-69
2021/10/16 00:23:37;;;;;;;12.23;10.93;;;9.70;99.90;;;9.31;100.00;101692.94;4117229;28;20027;-69
2021/10/16 00:25:38;;;;;;;10.25;9.20;;;9.60;99.90;;;9.32;100.00;101694.59;4117075;28;20045;-69
2021/10/16 00:27:39;;;;;;;12.20;8.60;;;9.70;99.90;;;9.26;100.00;101686.34;4117084;28;20027;-69
2021/10/16 00:29:40;;;;;;;8.60;6.95;;;9.70;99.90;;;9.29;100.00;101699.25;4117130;28;20046;-69
2021/10/16 00:31:41;;;;;;;10.65;8.10;;;9.60;99.90;;;9.36;100.00;101700.44;4117130;28;20083;-69
2021/10/16 00:33:42;;;;;;;10.93;7.63;;;9.70;99.90;;;9.40;100.00;101693.97;4117961;28;20110;-69
2021/10/16 00:35:43;;;;;;;11.60;9.90;;;9.70;99.90;;;9.38;100.00;101687.97;4118180;28;20023;-68
2021/10/16 00:37:44;;;;;;;15.20;11.63;;;9.80;99.90;;;9.33;100.00;101679.63;4118170;28;20049;-68
2021/10/16 00:39:45;;;;;;;10.45;9.10;;;9.70;99.90;;;9.27;100.00;101680.97;4118259;28;20027;-68
2021/10/16 00:41:46;;;;;;;15.45;9.23;;;9.70;99.90;;;9.19;100.00;101675.50;4118012;28;20114;-68
2021/10/16 00:43:47;;;;;;;11.38;8.98;;;9.70;99.90;;;9.22;100.00;101698.09;4116976;28;20027;-68
2021/10/16 00:45:48;;;;;;;10.48;8.77;;;9.70;99.90;;;9.22;100.00;101677.88;4117782;28;20061;-69
2021/10/16 00:47:49;;;;;;;13.02;9.88;;;9.60;99.90;;;9.25;100.00;101682.91;4117845;28;20057;-68
2021/10/16 00:49:50;;;;;;;15.27;12.10;;;9.60;99.90;;;9.33;100.00;101679.63;4116641;28;20027;-68
2021/10/16 00:51:52;;;;;;;12.55;10.90;;;9.70;99.90;;;9.39;100.00;101689.66;4116966;28;20105;-69
2021/10/16 00:53:53;;;;;;;13.73;8.93;;;9.60;99.90;;;9.25;100.00;101689.97;4116522;28;20038;-69
2021/10/16 00:55:54;;;;;;;9.25;8.07;;;9.60;99.90;;;9.20;100.00;101676.34;4117985;28;20023;-68
2021/10/16 00:58:00;;;;;;;8.55;7.65;;;9.60;99.90;;;9.17;100.00;101684.50;4116733;28;20114;-69
2021/10/16 01:00:04;;;;;;;10.27;8.30;;;9.60;99.90;;;9.17;100.00;101684.50;4116724;28;20071;-69
2021/10/16 01:02:05;;;;;;;10.00;7.07;;;9.50;99.90;;;9.12;100.00;101681.38;4100569;28;20035;-68
2021/10/16 01:04:06;;;;;;;13.95;10.25;;;9.50;99.90;;;9.26;100.00;101676.66;4106724;28;20532;-69
2021/10/16 01:06:07;;;;;;;11.98;9.52;;;9.50;99.90;;;9.23;100.00;101673.44;4116590;28;20092;-69
2021/10/16 01:08:11;;;;;;;10.95;8.50;;;9.60;99.90;;;9.15;100.00;101681.97;4116572;28;20031;-69
2021/10/16 01:10:13;;;;;;;10.88;8.02;;;9.60;99.90;;;9.13;100.00;101678.63;4116463;28;20027;-68
2021/10/16 01:12:16;;;;;;;9.98;7.82;;;9.60;99.90;;;9.07;100.00;101673.84;4116610;28;20023;-69
2021/10/16 01:14:18;;;;;;;15.10;11.43;;;9.50;99.90;;;9.13;100.00;101676.00;4117693;28;20066;-68
2021/10/16 01:16:20;;;;;;;10.10;8.30;;;9.50;99.90;;;9.10;100.00;101676.25;4100201;29;20122;-69
2021/10/16 01:18:22;;;;;;;10.52;7.30;;;9.50;99.90;;;9.07;100.00;101673.00;4115698;28;20037;-68
2021/10/16 01:20:24;;;;;;;9.88;7.60;;;9.50;99.90;;;9.02;100.00;101668.09;4100374;29;20035;-69
2021/10/16 01:22:27;;;;;;;9.10;7.38;;;9.40;99.90;;;9.08;100.00;101674.69;4110512;28;20031;-69
2021/10/16 01:24:29;;;;;;;11.15;8.80;;;9.40;99.90;;;9.15;100.00;101668.81;4116449;28;20058;-69
2021/10/16 01:26:30;;;;;;;17.33;12.35;;;9.50;99.90;;;9.25;100.00;101666.25;4116460;28;20027;-69
2021/10/16 01:28:32;;;;;;;16.40;12.90;;;9.50;99.90;;;9.27;100.00;101666.97;4117621;28;20031;-68
2021/10/16 01:30:33;;;;;;;14.35;12.35;;;9.50;99.90;;;9.41;100.00;101661.41;4116414;28;20042;-68
2021/10/16 01:32:36;;;;;;;15.70;9.85;;;9.60;99.90;;;9.34;100.00;101665.50;4116248;28;20386;-68
2021/10/16 01:34:37;;;;;;;10.35;8.90;;;9.70;99.90;;;9.26;100.00;101670.53;4103470;28;20030;-69
2021/10/16 01:36:45;;;;;;;10.85;7.90;;;9.60;99.90;;;9.15;100.00;101658.28;4116364;28;20107;-69
2021/10/16 01:38:46;;;;;;;15.88;10.65;;;9.60;99.90;;;9.21;100.00;101659.56;4100378;28;20566;-69
2021/10/16 01:40:47;;;;;;;17.77;12.27;;;9.60;99.90;;;9.30;100.00;101664.09;4129619;28;20045;-69
2021/10/16 01:42:50;;;;;;;12.52;9.82;;;9.60;99.90;;;9.22;100.00;101658.63;4116253;28;20090;-69
2021/10/16 01:44:51;;;;;;;13.63;9.73;;;9.60;99.90;;;9.26;100.00;101660.00;4116181;28;20023;-69
2021/10/16 01:46:52;;;;;;;14.35;10.82;;;9.50;99.90;;;9.21;100.00;101655.16;4117350;28;20502;-69
2021/10/16 01:48:52;;;;;;;11.13;9.38;;;9.60;99.90;;;9.24;100.00;101662.78;4115861;28;20054;-68
2021/10/16 01:50:55;;;;;;;10.52;8.13;;;9.60;99.90;;;9.13;100.00;101646.19;4117421;28;20038;-69
2021/10/16 01:52:55;;;;;;;12.85;10.13;;;9.60;99.90;;;9.12;100.00;101655.88;4116198;28;20069;-69
2021/10/16 01:54:56;;;;;;;9.07;7.55;;;9.50;99.90;;;9.06;100.00;101661.66;4116141;28;20027;-69
2021/10/16 01:56:57;;;;;;;12.63;8.52;;;9.50;99.90;;;9.00;100.00;101662.13;4117299;28;20090;-69
2021/10/16 01:59:19;;;;;;;9.88;8.23;;;9.40;99.90;;;8.98;100.00;101668.50;4116052;28;20464;-68
2021/10/16 02:01:20;;;;;;;11.95;6.78;;;9.30;99.90;;;8.93;100.00;101660.94;4117301;28;20045;-68
2021/10/16 02:03:21;;;;;;;10.23;8.35;;;9.30;99.90;;;8.96;100.00;101654.63;4115783;28;20031;-68
2021/10/16 02:05:22;;;;;;;9.38;6.65;;;9.30;99.90;;;8.93;100.00;101660.13;4117134;28;20104;-68
2021/10/16 02:07:23;;;;;;;11.90;7.22;;;9.30;99.90;;;9.01;100.00;101653.28;4116091;28;20050;-68
2021/10/16 02:09:24;;;;;;;16.35;13.48;;;9.40;99.90;;;9.22;100.00;101642.81;4115988;28;20510;-69
2021/10/16 02:11:25;;;;;;;12.00;8.85;;;9.40;99.90;;;9.18;100.00;101644.03;4115994;28;20375;-69
2021/10/16 02:13:26;;;;;;;11.15;7.60;;;9.50;99.90;;;9.18;100.00;101644.03;4115836;28;20027;-68
2021/10/16 02:15:27;;;;;;;12.57;9.52;;;9.60;99.90;;;9.26;100.00;101644.22;4116006;28;20027;-68
2021/10/16 02:17:27;;;;;;;13.82;11.07;;;9.60;99.90;;;9.38;100.00;101641.41;4115741;28;20549;-68
2021/10/16 02:19:28;;;;;;;12.95;10.65;;;9.70;99.90;;;9.48;100.00;101640.66;4116857;28;20039;-68
2021/10/16 02:21:30;;;;;;;12.27;10.93;;;9.80;99.90;;;9.50;100.00;101642.22;4115770;28;20466;-69
2021/10/16 02:23:30;;;;;;;17.20;11.05;;;9.90;99.90;;;9.56;100.00;101633.78;4115952;28;20061;-69
2021/10/16 02:25:31;;;;;;;16.25;12.63;;;9.90;99.90;;;9.58;100.00;101629.25;4116948;28;20431;-68
2021/10/16 02:27:32;;;;;;;14.13;10.60;;;10.00;99.90;;;9.71;100.00;101637.78;4115856;28;20042;-68
2021/10/16 02:29:33;;;;;;;12.00;10.32;;;10.00;99.90;;;9.84;100.00;101653.41;4116835;28;20063;-69
2021/10/16 02:31:34;;;;;;;17.65;8.95;;;10.10;99.90;;;9.78;100.00;101638.94;4116940;28;20022;-68
2021/10/16 02:33:35;;;;;;;14.55;10.82;;;10.20;99.90;;;9.95;100.00;101646.25;4115685;28;20589;-68
2021/10/16 02:35:36;;;;;;;11.95;10.23;;;10.20;99.90;;;9.93;100.00;101642.94;4119605;28;20037;-69
2021/10/16 02:37:37;;;;;;;13.23;11.82;;;10.30;99.90;;;9.92;100.00;101630.72;4119718;28;20031;-68
2021/10/16 02:39:38;;;;;;;12.65;11.45;;;10.40;99.90;;;10.01;100.00;101631.72;4119717;28;20074;-69
2021/10/16 02:41:39;;;;;;;13.65;12.25;;;10.40;99.90;;;10.09;100.00;101629.28;4118404;28;20406;-68
2021/10/16 02:43:40;;;;;;;23.27;12.45;;;10.50;99.90;;;10.05;100.00;101634.94;4119835;28;20035;-68
2021/10/16 02:45:41;;;;;;;13.57;10.88;;;10.50;99.90;;;10.00;100.00;101635.34;4118217;28;20084;-69
2021/10/16 02:47:42;;;;;;;11.93;10.73;;;10.50;99.90;;;9.99;100.00;101631.03;4119426;28;20027;-69
2021/10/16 02:49:43;;;;;;;18.63;11.00;;;10.50;99.90;;;9.87;100.00;101621.53;4102143;29;20054;-69
2021/10/16 02:51:45;;;;;;;11.25;10.15;;;10.50;99.90;;;9.86;100.00;101625.97;4112696;28;20110;-69
2021/10/16 02:53:46;;;;;;;12.27;11.07;;;10.40;99.90;;;9.94;100.00;101626.16;4119354;28;20061;-69
2021/10/16 02:55:47;;;;;;;14.77;10.80;;;10.50;99.90;;;9.94;100.00;101623.53;4119531;28;20023;-69
2021/10/16 02:57:48;;;;;;;12.70;11.23;;;10.40;99.90;;;9.98;100.00;101631.97;4119443;28;20042;-69
2021/10/16 02:59:49;;;;;;;11.55;10.45;;;10.40;99.90;;;9.90;100.00;101621.28;4119395;28;20050;-69
2021/10/16 03:01:50;;;;;;;11.15;10.15;;;10.40;99.90;;;9.93;100.00;101621.84;4118167;28;20034;-69
2021/10/16 03:03:51;;;;;;;10.77;9.68;;;10.40;99.90;;;9.85;100.00;101624.31;4119184;28;20027;-69
2021/10/16 03:05:52;;;;;;;12.20;11.02;;;10.40;99.90;;;9.98;100.00;101619.66;4118127;28;20049;-69
2021/10/16 03:07:53;;;;;;;12.05;10.85;;;10.40;99.90;;;9.91;100.00;101618.53;4118127;28;20030;-69
2021/10/16 03:09:54;;;;;;;13.50;10.65;;;10.50;99.90;;;9.91;100.00;101618.53;4118107;28;20084;-69
2021/10/16 03:11:55;;;;;;;13.10;11.00;;;10.40;99.90;;;9.91;100.00;101618.53;4119063;28;20015;-69
2021/10/16 03:13:58;;;;;;;11.05;10.02;;;10.50;99.90;;;9.88;100.00;101620.56;4118081;28;20069;-69
2021/10/16 03:15:59;;;;;;;11.50;10.45;;;10.50;99.90;;;9.91;100.00;101612.41;4118052;28;20031;-69
2021/10/16 03:18:00;;;;;;;12.07;10.88;;;10.50;99.90;;;9.93;100.00;101616.56;4117788;28;20047;-69
2021/10/16 03:20:02;;;;;;;14.00;11.75;;;10.50;99.90;;;10.05;100.00;101613.84;4119053;28;20027;-69
2021/10/16 03:22:03;;;;;;;12.65;11.35;;;10.50;99.90;;;10.10;100.00;101622.19;4118212;28;20031;-69
2021/10/16 03:24:04;;;;;;;12.57;11.32;;;10.50;99.90;;;10.09;100.00;101621.38;4117965;28;20058;-69
2021/10/16 03:26:05;;;;;;;10.55;9.65;;;10.50;99.90;;;10.00;100.00;101625.63;4117819;28;20157;-69
2021/10/16 03:28:06;;;;;;;13.57;11.05;;;10.50;99.90;;;10.02;100.00;101621.06;4118936;28;20031;-69
2021/10/16 03:30:08;;;;;;;11.48;10.30;;;10.50;99.90;;;10.17;100.00;101624.22;4119099;28;20031;-69
2021/10/16 03:32:09;;;;;;;12.82;11.63;;;10.60;99.90;;;10.22;100.00;101623.81;4117750;28;20486;-69
2021/10/16 03:34:09;;;;;;;10.73;9.73;;;10.60;99.90;;;10.08;100.00;101622.34;4101511;28;20038;-69
2021/10/16 03:36:10;;;;;;;11.68;10.57;;;10.60;99.90;;;10.05;100.00;101617.31;4117670;28;20518;-69
2021/10/16 03:38:12;;;;;;;11.68;10.48;;;10.50;99.90;;;10.14;100.00;101610.47;4119035;28;20038;-69
2021/10/16 03:40:13;;;;;;;11.50;10.30;;;10.50;99.90;;;10.08;100.00;101624.13;4117992;28;20034;-69
2021/10/16 03:42:14;;;;;;;9.60;8.73;;;10.50;99.90;;;9.91;100.00;101609.78;4118890;28;20075;-69
2021/10/16 03:44:15;;;;;;;11.77;10.55;;;10.40;99.90;;;9.88;100.00;101618.78;4118639;28;20050;-69
2021/10/16 03:46:15;;;;;;;10.70;9.63;;;10.50;99.90;;;9.78;100.00;101612.59;4117530;28;20041;-69
2021/10/16 03:48:16;;;;;;;11.80;10.60;;;10.40;99.90;;;9.74;100.00;101611.19;4117372;28;20035;-69
2021/10/16 03:50:17;;;;;;;12.38;11.07;;;10.30;99.90;;;9.72;100.00;101618.38;4118749;28;20031;-69
2021/10/16 03:52:18;;;;;;;10.43;9.43;;;10.30;99.90;;;9.65;100.00;101608.47;4117552;28;20019;-69
2021/10/16 03:54:19;;;;;;;13.13;11.82;;;10.30;99.90;;;9.79;100.00;101624.81;4118838;28;20031;-69
2021/10/16 03:56:20;;;;;;;12.07;10.73;;;10.20;99.90;;;9.76;100.00;101618.97;4118725;28;20027;-69
2021/10/16 03:58:21;;;;;;;13.88;10.90;;;10.30;99.90;;;9.82;100.00;101623.72;4117568;28;20038;-69
2021/10/16 04:00:22;;;;;;;11.95;10.73;;;10.30;99.90;;;10.00;100.00;101622.16;4117373;28;20517;-69
2021/10/16 04:02:25;;;;;;;11.02;10.02;;;10.30;99.90;;;9.87;100.00;101616.25;4117490;28;20031;-69
2021/10/16 04:04:26;;;;;;;10.07;8.55;;;10.30;99.90;;;9.75;100.00;101612.88;4118670;28;20113;-68
2021/10/16 04:06:27;;;;;;;10.77;9.77;;;10.30;99.90;;;9.73;100.00;101620.06;4118504;28;20105;-69
2021/10/16 04:08:28;;;;;;;10.95;9.95;;;10.20;99.90;;;9.65;100.00;101619.00;4118495;28;20390;-69
2021/10/16 04:10:29;;;;;;;14.15;10.90;;;10.20;99.90;;;9.57;100.00;101617.03;4117485;28;20216;-69
2021/10/16 04:12:30;;;;;;;12.13;10.07;;;10.20;99.90;;;9.66;100.00;101611.00;4118569;28;20100;-68
2021/10/16 04:14:31;;;;;;;21.83;11.85;;;10.20;99.90;;;9.61;100.00;101613.19;4117351;28;20487;-69
2021/10/16 04:16:32;;;;;;;15.82;10.02;;;10.20;99.90;;;9.67;100.00;101609.22;4118222;28;20055;-69
2021/10/16 04:18:32;;;;;;;12.00;10.77;;;10.20;99.90;;;9.85;100.00;101613.75;4100949;28;20039;-69
2021/10/16 04:20:34;;;;;;;11.43;10.32;;;10.20;99.90;;;9.91;100.00;101622.94;4125014;28;20375;-69
2021/10/16 04:22:35;;;;;;;11.10;10.10;;;10.30;99.90;;;9.78;100.00;101614.41;4149437;28;20029;-69
2021/10/16 04:24:35;;;;;;;10.50;9.50;;;10.20;99.90;;;9.65;100.00;101614.59;4118314;28;20038;-69
2021/10/16 04:26:36;;;;;;;10.80;9.80;;;10.20;99.90;;;9.65;100.00;101609.31;4118299;28;20062;-69
2021/10/16 04:28:37;;;;;;;11.73;10.63;;;10.10;99.90;;;9.61;100.00;101602.66;4118287;28;20097;-69
2021/10/16 04:30:38;;;;;;;10.90;9.80;;;10.10;99.90;;;9.75;100.00;101604.13;4117095;28;20030;-69
2021/10/16 04:32:39;;;;;;;9.38;8.57;;;10.10;99.90;;;9.62;100.00;101608.72;4116696;28;20030;-69
2021/10/16 04:34:40;;;;;;;13.45;10.10;;;10.10;99.90;;;9.56;100.00;101598.75;4117061;28;20027;-69
2021/10/16 04:36:41;;;;;;;10.27;9.27;;;10.10;99.90;;;9.48;100.00;101602.00;4117018;28;20066;-68
2021/10/16 04:38:47;;;;;;;9.80;8.90;;;10.00;99.90;;;9.50;100.00;101597.44;4116815;28;20027;-69
2021/10/16 04:40:49;;;;;;;10.45;9.45;;;10.00;99.90;;;9.58;100.00;101600.28;4101057;28;20034;-69
2021/10/16 04:42:51;;;;;;;10.80;9.80;;;10.00;99.90;;;9.62;100.00;101601.66;4116884;28;20034;-69
2021/10/16 04:44:52;;;;;;;10.05;9.15;;;10.00;99.90;;;9.52;100.00;101600.78;4116849;28;20030;-69
2021/10/16 04:46:53;;;;;;;8.95;8.05;;;10.00;99.90;;;9.40;100.00;101601.81;4116901;28;20377;-68
2021/10/16 04:48:54;;;;;;;8.75;7.95;;;9.90;99.90;;;9.33;100.00;101596.22;4116480;28;20096;-68
2021/10/16 04:50:55;;;;;;;9.32;8.15;;;9.90;99.90;;;9.26;100.00;101599.47;4116800;28;20030;-68
2021/10/16 04:52:56;;;;;;;10.07;9.07;;;9.90;99.90;;;9.25;100.00;101596.03;4100830;28;20019;-68
2021/10/16 04:54:57;;;;;;;10.68;9.68;;;9.70;99.90;;;9.39;100.00;101595.72;4111674;28;20038;-68
2021/10/16 04:56:57;;;;;;;9.02;8.23;;;9.80;99.90;;;9.22;100.00;101592.81;4115868;28;20042;-69
2021/10/16 04:58:58;;;;;;;9.43;8.60;;;9.80;99.90;;;9.31;100.00;101603.41;4116770;28;20066;-69
2021/10/16 05:00:59;;;;;;;10.23;9.27;;;9.70;99.90;;;9.29;100.00;101594.78;4117868;28;20661;-69
2021/10/16 05:03:00;;;;;;;10.60;9.60;;;9.70;99.90;;;9.33;100.00;101611.16;4116447;28;20084;-69
2021/10/16 05:05:01;;;;;;;9.35;8.45;;;9.70;99.90;;;9.20;100.00;101611.34;4116556;28;20027;-69
2021/10/16 05:07:03;;;;;;;8.90;8.10;;;9.70;99.90;;;9.06;100.00;101592.38;4116522;28;20083;-68
2021/10/16 05:09:04;;;;;;;9.57;8.68;;;9.60;99.90;;;9.09;100.00;101606.13;4117854;28;20479;-69
2021/10/16 05:11:05;;;;;;;8.77;7.97;;;9.60;99.90;;;9.13;100.00;101604.94;4117743;28;20031;-69
2021/10/16 05:13:06;;;;;;;8.70;7.90;;;9.50;99.90;;;9.04;100.00;101602.22;4100433;29;20056;-69
2021/10/16 05:15:08;;;;;;;9.07;8.27;;;9.50;99.90;;;9.04;100.00;101604.84;4131406;28;20026;-69
2021/10/16 05:17:09;;;;;;;8.63;7.82;;;9.50;99.90;;;9.01;100.00;101597.19;4116400;28;20051;-69
2021/10/16 05:19:10;;;;;;;8.63;7.82;;;9.50;99.90;;;8.97;100.00;101603.66;4116272;28;20038;-69
2021/10/16 05:21:11;;;;;;;9.20;8.40;;;9.40;99.90;;;9.01;100.00;101605.09;4116487;28;20023;-69
2021/10/16 05:23:12;;;;;;;18.88;9.73;;;9.40;99.90;;;8.95;100.00;101606.44;4117517;28;20490;-69
2021/10/16 05:25:13;;;;;;;9.30;8.30;;;9.40;99.90;;;8.98;100.00;101605.34;4117563;28;20027;-68
2021/10/16 05:27:13;;;;;;;9.90;8.90;;;9.40;99.90;;;8.99;100.00;101607.81;4117572;28;20030;-68
2021/10/16 05:29:14;;;;;;;9.35;8.45;;;9.40;99.90;;;8.83;100.00;101597.72;4116532;28;20038;-68
2021/10/16 05:31:15;;;;;;;8.73;7.80;;;9.40;99.90;;;8.75;100.00;101615.09;4116138;28;20578;-69
2021/10/16 05:33:16;;;;;;;9.90;7.82;;;9.30;99.90;;;8.80;100.00;101603.25;4116165;28;20031;-69
2021/10/16 05:35:17;;;;;;;9.00;8.20;;;9.30;99.90;;;8.93;100.00;101603.06;4117515;28;20490;-69
2021/10/16 05:37:18;;;;;;;8.43;7.72;;;9.30;99.90;;;8.94;100.00;101609.16;4116327;28;20379;-69
2021/10/16 05:39:19;;;;;;;8.02;7.32;;;9.30;99.90;;;8.84;100.00;101607.28;4117278;28;20070;-69
2021/10/16 05:41:20;;;;;;;8.48;7.78;;;9.30;99.90;;;8.77;100.00;101610.53;4117530;28;20023;-68
2021/10/16 05:43:21;;;;;;;9.25;8.45;;;9.20;99.90;;;8.80;100.00;101603.25;4117555;28;20042;-69
2021/10/16 05:45:22;;;;;;;8.10;7.35;;;9.20;99.90;;;8.76;100.00;101609.69;4117329;28;20440;-69
2021/10/16 05:47:23;;;;;;;8.07;7.38;;;9.20;99.90;;;8.69;100.00;101613.75;4115792;28;20034;-69
2021/10/16 05:49:24;;;;;;;8.07;7.28;;;9.20;99.90;;;8.58;100.00;101600.66;4116007;28;20466;-69
2021/10/16 05:51:25;;;;;;;7.93;7.15;;;9.10;99.90;;;8.53;100.00;101601.97;4116204;28;20054;-69
2021/10/16 05:53:26;;;;;;;8.23;7.47;;;9.10;99.90;;;8.56;100.00;101607.00;4116245;28;20015;-69
2021/10/16 05:55:27;;;;;;;8.13;7.40;;;9.00;99.90;;;8.53;100.00;101605.44;4116088;28;20426;-69
2021/10/16 05:57:28;;;;;;;7.95;7.25;;;8.90;99.90;;;8.52;100.00;101609.03;4117413;28;20022;-69
2021/10/16 05:59:29;;;;;;;8.63;7.85;;;9.00;99.90;;;8.47;100.00;101608.56;4117274;28;20084;-69
2021/10/16 06:01:30;;;;;;;7.68;6.97;;;8.90;99.90;;;8.36;100.00;101602.47;4116105;28;20630;-69
2021/10/16 06:03:33;;;;;;;8.02;7.25;;;8.80;99.90;;;8.34;100.00;101605.22;4115684;28;20094;-69
2021/10/16 06:05:37;;;;;;;8.52;7.72;;;8.80;99.90;;;8.37;100.00;101594.44;4117276;28;20035;-69
2021/10/16 06:07:38;;;;;;;9.13;8.23;;;8.80;99.90;;;8.41;100.00;101608.19;4117573;28;20031;-68
2021/10/16 06:09:39;;;;;;;9.15;8.25;;;8.80;99.90;;;8.41;100.00;101603.78;4120029;28;20027;-68
2021/10/16 06:11:39;;;;;;;8.63;7.53;;;8.90;99.90;;;8.47;100.00;101607.72;4118872;28;20081;-68
2021/10/16 06:13:40;;;;;;;7.82;7.13;;;8.90;99.90;;;8.48;100.00;101607.63;4102903;28;20031;-68
2021/10/16 06:15:41;;;;;;;8.90;8.00;;;8.90;99.90;;;8.30;100.00;101614.31;4118926;28;20462;-68
2021/10/16 06:17:42;;;;;;;8.30;7.50;;;8.90;99.90;;;8.26;100.00;101618.09;4119541;28;20461;-68
2021/10/16 06:19:45;;;;;;;8.75;8.02;;;8.80;99.90;;;8.31;100.00;101616.81;4119885;28;20027;-68
2021/10/16 06:21:46;;;;;;;11.65;8.48;;;8.80;99.90;;;8.30;100.00;101616.94;4118803;28;20058;-68
2021/10/16 06:23:47;;;;;;;8.70;7.90;;;8.80;99.90;;;8.37;100.00;101615.47;4118832;28;20035;-68
2021/10/16 06:25:47;;;;;;;9.23;8.38;;;8.80;99.90;;;8.32;100.00;101607.13;4118669;28;20161;-68
2021/10/16 06:27:48;;;;;;;8.07;7.32;;;8.80;99.90;;;8.27;100.00;101604.84;4118604;28;20051;-68
2021/10/16 06:29:50;;;;;;;8.90;8.02;;;8.80;99.90;;;8.27;100.00;101601.38;4120085;28;20034;-68
2021/10/16 06:31:51;;;;;;;9.27;8.00;;;8.80;99.90;;;8.29;100.00;101602.97;4118593;28;20074;-68
2021/10/16 06:33:52;;;;;;;8.25;7.50;;;8.80;99.90;;;8.31;100.00;101606.28;4119416;28;20026;-68
2021/10/16 06:35:53;;;;;;;9.32;8.32;;;8.70;99.90;;;8.32;100.00;101610.59;4119626;28;20023;-69
2021/10/16 06:37:54;;;;;;;9.10;8.23;;;8.70;99.90;;;8.32;100.00;101613.22;4118154;28;20050;-69
2021/10/16 06:39:55;;;;;;;8.93;8.02;;;8.80;99.90;;;8.31;100.00;101610.72;4118524;28;20031;-69
2021/10/16 06:41:56;;;;;;;9.57;8.50;;;8.80;99.90;;;8.35;100.00;101617.41;4118457;28;20376;-69
2021/10/16 06:43:57;;;;;;;8.88;8.00;;;8.80;99.90;;;8.44;100.00;101626.38;4118285;28;20062;-69
2021/10/16 06:45:58;;;;;;;11.88;9.57;;;8.80;99.90;;;8.37;100.00;101620.75;4118280;28;20054;-69
2021/10/16 06:47:59;;;;;;;8.90;8.07;;;8.90;99.90;;;8.41;100.00;101622.19;4102117;28;20019;-69
2021/10/16 06:50:00;;;;;;;10.68;9.43;;;8.90;99.90;;;8.48;100.00;101618.13;4118106;28;20413;-69
2021/10/16 06:52:01;;;;;;;10.55;9.23;;;8.90;99.90;;;8.52;100.00;101632.69;4119337;28;20065;-69
2021/10/16 06:54:02;;;;;;;17.98;10.30;;;8.90;99.90;;;8.39;100.00;101616.22;4119244;28;20034;-69
2021/10/16 06:56:04;;;;;;;12.77;9.73;;;8.90;99.90;;;8.48;100.00;101618.13;4119417;28;20026;-69
2021/10/16 06:58:05;;;;;;;14.57;9.68;;;9.00;99.90;;;8.47;100.00;101620.88;4118199;28;20034;-69
2021/10/16 07:00:07;;;;;;;14.32;9.68;;;9.00;99.90;;;8.51;100.00;101622.31;4102086;29;20023;-69
2021/10/16 07:02:08;;;;;;;10.23;9.23;;;9.00;99.90;;;8.61;100.00;101629.31;4100843;28;20498;-69
2021/10/16 07:04:09;;;;;;;19.98;9.85;;;9.10;99.90;;;8.55;100.00;101635.06;4107963;28;20038;-68
2021/10/16 07:06:11;;;;;;;14.15;9.30;;;9.10;99.90;;;8.47;100.00;101639.25;4118883;28;20043;-69
2021/10/16 07:08:12;;;;;;;17.30;10.70;;;9.00;99.90;;;8.46;100.00;101633.16;4117987;28;20487;-69
2021/10/16 07:10:13;;;;;;;20.25;11.00;;;9.20;99.90;;;8.60;100.00;101629.47;4117724;28;20033;-69
2021/10/16 07:12:14;;;;;;;24.35;10.68;;;9.20;99.90;;;8.64;100.00;101639.59;4102602;29;20038;-69
2021/10/16 07:14:15;;;;;;;12.73;10.23;;;9.30;99.90;;;8.80;100.00;101640.06;4120240;28;20402;-69
2021/10/16 07:16:16;;;;;;;11.77;10.57;;;9.30;99.90;;;8.95;100.00;101639.78;4119928;28;20054;-69
2021/10/16 07:18:17;;;;;;;12.48;11.13;;;9.40;99.90;;;9.16;100.00;101627.53;4118509;28;20092;-69
2021/10/16 07:20:21;;;;;;;10.68;9.68;;;9.50;99.90;;;9.11;100.00;101621.81;4101971;28;20067;-69
2021/10/16 07:22:23;;;;;;;10.85;9.75;;;9.60;99.90;;;9.25;100.00;101642.56;4119779;28;20026;-69
2021/10/16 07:24:24;;;;;;;10.88;8.80;;;9.70;99.90;;;9.21;100.00;101633.25;4118835;28;20067;-69
2021/10/16 07:26:27;;;;;;;11.35;8.32;;;9.70;99.90;;;9.37;100.00;101633.66;4118791;28;20046;-69
2021/10/16 07:28:28;;;;;;;9.30;7.72;;;9.80;99.90;;;9.34;100.00;101644.44;4103207;28;20024;-69
2021/10/16 07:30:29;;;;;;;9.10;8.20;;;9.90;99.90;;;9.38;100.00;101645.84;4102892;28;20036;-69
2021/10/16 07:32:30;;;;;;;9.77;7.78;;;9.90;99.90;;;9.43;100.00;101649.81;4134461;28;20026;-69
2021/10/16 07:34:31;;;;;;;16.75;9.40;;;9.90;99.90;;;9.43;100.00;101654.22;4118364;28;20060;-69
2021/10/16 07:36:34;;;;;;;11.80;9.02;;;9.90;99.90;;;9.41;100.00;101653.50;4118794;28;20034;-69
2021/10/16 07:38:36;;;;;;;12.50;9.32;;;10.00;99.90;;;9.51;100.00;101656.22;4118042;28;20077;-69
2021/10/16 07:40:37;;;;;;;8.13;7.35;;;10.00;99.90;;;9.47;100.00;101650.34;4119379;28;20035;-69
2021/10/16 07:42:38;;;;;;;12.30;8.40;;;10.10;99.90;;;9.65;100.00;101662.00;4118396;28;20050;-69
2021/10/16 07:44:40;;;;;;;9.48;8.23;;;10.10;99.90;;;9.62;100.00;101654.34;4118764;28;20034;-69
2021/10/16 07:46:43;;;;;;;10.07;8.43;;;10.10;99.90;;;9.60;100.00;101651.03;4118615;28;20057;-69
2021/10/16 07:48:44;;;;;;;13.35;8.13;;;10.10;99.90;;;9.60;100.00;101652.81;4117843;28;20023;-68
2021/10/16 07:50:45;;;;;;;12.43;8.90;;;10.20;99.90;;;9.72;100.00;101655.28;4118464;28;20090;-68
2021/10/16 07:52:46;;;;;;;9.10;8.05;;;10.30;99.90;;;9.64;100.00;101656.88;4119660;28;20065;-69
2021/10/16 07:54:47;;;;;;;9.43;8.45;;;10.30;99.90;;;9.76;100.00;101659.34;4118452;28;20581;-68
2021/10/16 07:56:48;;;;;;;9.77;8.77;;;10.30;99.90;;;9.86;100.00;101662.00;4118228;28;20061;-69
2021/10/16 07:58:50;;;;;;;9.38;8.32;;;10.40;99.90;;;9.92;100.00;101654.44;4119589;28;20037;-69
2021/10/16 08:00:51;;;;;;;9.85;7.93;;;10.40;99.90;;;9.94;100.00;101657.78;4119476;28;20106;-69
2021/10/16 08:02:52;;;;;;;9.80;7.93;;;10.50;99.90;;;9.91;100.00;101660.69;4117876;28;20030;-69
2021/10/16 08:04:54;;;;;;;12.30;9.55;;;10.50;99.90;;;9.98;100.00;101663.63;4102124;28;20042;-68
2021/10/16 08:06:55;;;;;;;17.23;9.57;;;10.60;99.90;;;10.01;100.00;101666.84;4118129;28;20023;-69
2021/10/16 08:08:56;;;;;;;20.85;9.77;;;10.60;99.90;;;9.73;100.00;101667.50;4117918;28;20096;-69
2021/10/16 08:10:58;;;;;;;13.27;10.00;;;10.60;99.90;;;9.92;100.00;101667.59;4119284;28;20121;-69
2021/10/16 08:12:59;;;;;;;9.18;8.25;;;10.60;99.90;;;9.89;100.00;101653.84;4119171;28;20050;-69
2021/10/16 08:15:00;;;;;;;11.23;8.52;;;10.60;99.90;;;9.98;100.00;101655.72;4101903;29;20034;-69
2021/10/16 08:17:01;;;;;;;10.23;9.18;;;10.70;99.90;;;10.09;100.00;101660.09;4117760;28;20049;-69
2021/10/16 08:19:02;;;;;;;10.02;8.95;;;10.70;99.90;;;10.16;100.00;101655.97;4118878;28;20074;-69
2021/10/16 08:21:03;;;;;;;10.88;9.82;;;10.80;99.90;;;10.30;100.00;101658.28;4101874;28;20031;-69
2021/10/16 08:23:05;;;;;;;12.25;9.45;;;10.90;99.90;;;10.37;100.00;101662.88;4134082;28;20048;-69